sensor_id;sensor_type;location;lat;lon;timestamp;temperature;humidity
63371;DHT22;49504;48.336;14.472;2023-06-22T00:02:29;26.80;56.90
63371;DHT22;49504;48.336;14.472;2023-06-22T00:05:50;26.70;56.80
63371;DHT22;49504;48.336;14.472;2023-06-22T00:10:48;26.70;56.30
63371;DHT22;49504;48.336;14.472;2023-06-22T00:14:10;26.80;56.90
63371;DHT22;49504;48.336;14.472;2023-06-22T00:17:31;26.70;56.80
63371;DHT22;49504;48.336;14.472;2023-06-22T00:20:52;26.80;56.80
63371;DHT22;49504;48.336;14.472;2023-06-22T00:24:13;26.80;56.80
63371;DHT22;49504;48.336;14.472;2023-06-22T00:27:36;26.80;56.80
63371;DHT22;49504;48.336;14.472;2023-06-22T00:30:57;26.80;56.80
63371;DHT22;49504;48.336;14.472;2023-06-22T00:34:20;26.80;56.70
63371;DHT22;49504;48.336;14.472;2023-06-22T00:39:23;26.80;56.20
63371;DHT22;49504;48.336;14.472;2023-06-22T00:42:45;26.80;56.60
63371;DHT22;49504;48.336;14.472;2023-06-22T00:47:16;26.70;56.00
63371;DHT22;49504;48.336;14.472;2023-06-22T00:50:38;26.80;56.60
63371;DHT22;49504;48.336;14.472;2023-06-22T00:54:00;26.70;56.50
63371;DHT22;49504;48.336;14.472;2023-06-22T00:57:22;26.80;56.60
63371;DHT22;49504;48.336;14.472;2023-06-22T01:00:45;26.80;56.50
63371;DHT22;49504;48.336;14.472;2023-06-22T01:04:07;26.70;56.50
63371;DHT22;49504;48.336;14.472;2023-06-22T01:07:35;26.70;56.50
63371;DHT22;49504;48.336;14.472;2023-06-22T01:11:04;26.80;56.60
63371;DHT22;49504;48.336;14.472;2023-06-22T01:14:32;26.80;56.50
63371;DHT22;49504;48.336;14.472;2023-06-22T01:17:57;26.80;56.60
63371;DHT22;49504;48.336;14.472;2023-06-22T01:21:23;26.80;56.60
63371;DHT22;49504;48.336;14.472;2023-06-22T01:24:57;26.70;57.20
63371;DHT22;49504;48.336;14.472;2023-06-22T01:28:45;26.80;56.50
63371;DHT22;49504;48.336;14.472;2023-06-22T01:32:07;26.70;56.40
63371;DHT22;49504;48.336;14.472;2023-06-22T01:35:30;26.70;56.40
63371;DHT22;49504;48.336;14.472;2023-06-22T01:38:52;26.70;56.40
63371;DHT22;49504;48.336;14.472;2023-06-22T01:42:14;26.70;56.40
63371;DHT22;49504;48.336;14.472;2023-06-22T01:45:36;26.70;56.40
63371;DHT22;49504;48.336;14.472;2023-06-22T01:48:58;26.70;56.30
63371;DHT22;49504;48.336;14.472;2023-06-22T01:52:19;26.70;56.30
63371;DHT22;49504;48.336;14.472;2023-06-22T01:55:40;26.70;56.30
63371;DHT22;49504;48.336;14.472;2023-06-22T01:59:14;26.70;56.30
63371;DHT22;49504;48.336;14.472;2023-06-22T02:02:44;26.70;56.30
63371;DHT22;49504;48.336;14.472;2023-06-22T02:06:11;26.70;56.30
63371;DHT22;49504;48.336;14.472;2023-06-22T02:09:43;26.70;56.30
63371;DHT22;49504;48.336;14.472;2023-06-22T02:13:06;26.70;56.30
63371;DHT22;49504;48.336;14.472;2023-06-22T02:16:30;26.70;56.30
63371;DHT22;49504;48.336;14.472;2023-06-22T02:19:53;26.70;56.30
63371;DHT22;49504;48.336;14.472;2023-06-22T02:23:14;26.70;56.20
63371;DHT22;49504;48.336;14.472;2023-06-22T02:26:36;26.70;56.20
63371;DHT22;49504;48.336;14.472;2023-06-22T02:29:58;26.70;56.20
63371;DHT22;49504;48.336;14.472;2023-06-22T02:33:19;26.70;56.20
63371;DHT22;49504;48.336;14.472;2023-06-22T02:36:42;26.70;56.20
63371;DHT22;49504;48.336;14.472;2023-06-22T02:40:04;26.70;56.20
63371;DHT22;49504;48.336;14.472;2023-06-22T02:43:27;26.70;56.20
63371;DHT22;49504;48.336;14.472;2023-06-22T02:46:48;26.70;56.20
63371;DHT22;49504;48.336;14.472;2023-06-22T02:50:10;26.70;56.20
63371;DHT22;49504;48.336;14.472;2023-06-22T02:53:33;26.70;56.30
63371;DHT22;49504;48.336;14.472;2023-06-22T02:56:54;26.70;56.20
63371;DHT22;49504;48.336;14.472;2023-06-22T03:00:16;26.70;56.30
63371;DHT22;49504;48.336;14.472;2023-06-22T03:03:39;26.70;56.30
63371;DHT22;49504;48.336;14.472;2023-06-22T03:07:00;26.70;56.20
63371;DHT22;49504;48.336;14.472;2023-06-22T03:10:24;26.70;56.20
63371;DHT22;49504;48.336;14.472;2023-06-22T03:13:45;26.70;56.20
63371;DHT22;49504;48.336;14.472;2023-06-22T03:17:07;26.70;56.20
63371;DHT22;49504;48.336;14.472;2023-06-22T03:20:28;26.70;56.20
63371;DHT22;49504;48.336;14.472;2023-06-22T03:23:49;26.70;56.10
63371;DHT22;49504;48.336;14.472;2023-06-22T03:27:12;26.70;56.10
63371;DHT22;49504;48.336;14.472;2023-06-22T03:30:34;26.60;56.00
63371;DHT22;49504;48.336;14.472;2023-06-22T03:33:56;26.60;56.00
63371;DHT22;49504;48.336;14.472;2023-06-22T03:37:18;26.60;56.00
63371;DHT22;49504;48.336;14.472;2023-06-22T03:40:39;26.70;56.20
63371;DHT22;49504;48.336;14.472;2023-06-22T03:44:02;26.70;56.20
63371;DHT22;49504;48.336;14.472;2023-06-22T03:47:23;26.60;56.30
63371;DHT22;49504;48.336;14.472;2023-06-22T03:50:45;26.70;56.40
63371;DHT22;49504;48.336;14.472;2023-06-22T03:54:06;26.70;56.60
63371;DHT22;49504;48.336;14.472;2023-06-22T03:57:28;26.60;56.60
63371;DHT22;49504;48.336;14.472;2023-06-22T04:00:51;26.70;56.70
63371;DHT22;49504;48.336;14.472;2023-06-22T04:04:13;26.70;56.60
63371;DHT22;49504;48.336;14.472;2023-06-22T04:07:34;26.70;56.60
63371;DHT22;49504;48.336;14.472;2023-06-22T04:10:55;26.70;56.60
63371;DHT22;49504;48.336;14.472;2023-06-22T04:14:19;26.70;56.80
63371;DHT22;49504;48.336;14.472;2023-06-22T04:17:42;26.60;56.50
63371;DHT22;49504;48.336;14.472;2023-06-22T04:21:04;26.60;56.60
63371;DHT22;49504;48.336;14.472;2023-06-22T04:24:25;26.70;56.60
63371;DHT22;49504;48.336;14.472;2023-06-22T04:27:47;26.70;57.30
63371;DHT22;49504;48.336;14.472;2023-06-22T04:31:08;26.60;56.80
63371;DHT22;49504;48.336;14.472;2023-06-22T04:34:30;26.60;56.50
63371;DHT22;49504;48.336;14.472;2023-06-22T04:37:53;26.60;56.50
63371;DHT22;49504;48.336;14.472;2023-06-22T04:41:14;26.70;56.40
63371;DHT22;49504;48.336;14.472;2023-06-22T04:44:35;26.70;56.40
63371;DHT22;49504;48.336;14.472;2023-06-22T04:47:56;26.70;56.30
63371;DHT22;49504;48.336;14.472;2023-06-22T04:51:19;26.70;56.40
63371;DHT22;49504;48.336;14.472;2023-06-22T04:54:40;26.70;56.40
63371;DHT22;49504;48.336;14.472;2023-06-22T04:58:01;26.60;56.10
63371;DHT22;49504;48.336;14.472;2023-06-22T05:01:23;26.60;55.90
63371;DHT22;49504;48.336;14.472;2023-06-22T05:04:44;26.60;55.80
63371;DHT22;49504;48.336;14.472;2023-06-22T05:08:06;26.60;55.90
63371;DHT22;49504;48.336;14.472;2023-06-22T05:11:28;26.60;56.00
63371;DHT22;49504;48.336;14.472;2023-06-22T05:14:49;26.60;56.10
63371;DHT22;49504;48.336;14.472;2023-06-22T05:18:10;26.60;56.20
63371;DHT22;49504;48.336;14.472;2023-06-22T05:21:32;26.60;56.20
63371;DHT22;49504;48.336;14.472;2023-06-22T05:24:54;26.60;56.30
63371;DHT22;49504;48.336;14.472;2023-06-22T05:28:15;26.60;56.30
63371;DHT22;49504;48.336;14.472;2023-06-22T05:31:37;26.60;56.30
63371;DHT22;49504;48.336;14.472;2023-06-22T05:34:59;26.60;57.00
63371;DHT22;49504;48.336;14.472;2023-06-22T05:38:20;26.60;56.40
63371;DHT22;49504;48.336;14.472;2023-06-22T05:41:42;26.60;56.40
63371;DHT22;49504;48.336;14.472;2023-06-22T05:45:07;26.60;56.30
63371;DHT22;49504;48.336;14.472;2023-06-22T05:48:28;26.60;56.30
63371;DHT22;49504;48.336;14.472;2023-06-22T05:51:50;26.60;56.30
63371;DHT22;49504;48.336;14.472;2023-06-22T05:55:11;26.60;56.30
63371;DHT22;49504;48.336;14.472;2023-06-22T05:58:33;26.60;56.20
63371;DHT22;49504;48.336;14.472;2023-06-22T06:01:55;26.60;56.30
63371;DHT22;49504;48.336;14.472;2023-06-22T06:05:17;26.60;56.20
63371;DHT22;49504;48.336;14.472;2023-06-22T06:08:38;26.60;56.20
63371;DHT22;49504;48.336;14.472;2023-06-22T06:11:59;26.60;56.20
63371;DHT22;49504;48.336;14.472;2023-06-22T06:15:21;26.60;56.20
63371;DHT22;49504;48.336;14.472;2023-06-22T06:18:43;26.60;56.20
63371;DHT22;49504;48.336;14.472;2023-06-22T06:22:04;26.60;56.20
63371;DHT22;49504;48.336;14.472;2023-06-22T06:25:25;26.60;56.20
63371;DHT22;49504;48.336;14.472;2023-06-22T06:28:46;26.60;56.10
63371;DHT22;49504;48.336;14.472;2023-06-22T06:32:09;26.60;56.20
63371;DHT22;49504;48.336;14.472;2023-06-22T06:35:30;26.60;56.20
63371;DHT22;49504;48.336;14.472;2023-06-22T06:38:51;26.60;56.20
63371;DHT22;49504;48.336;14.472;2023-06-22T06:42:12;26.60;56.20
63371;DHT22;49504;48.336;14.472;2023-06-22T06:45:35;26.60;56.20
63371;DHT22;49504;48.336;14.472;2023-06-22T06:48:57;26.60;56.20
63371;DHT22;49504;48.336;14.472;2023-06-22T06:52:18;26.60;56.30
63371;DHT22;49504;48.336;14.472;2023-06-22T06:55:39;26.60;56.20
63371;DHT22;49504;48.336;14.472;2023-06-22T06:59:00;26.70;56.30
63371;DHT22;49504;48.336;14.472;2023-06-22T07:02:22;26.60;56.30
63371;DHT22;49504;48.336;14.472;2023-06-22T07:05:44;26.60;56.30
63371;DHT22;49504;48.336;14.472;2023-06-22T07:09:05;26.60;56.30
63371;DHT22;49504;48.336;14.472;2023-06-22T07:12:26;26.60;56.30
63371;DHT22;49504;48.336;14.472;2023-06-22T07:15:48;26.60;56.30
63371;DHT22;49504;48.336;14.472;2023-06-22T07:19:11;26.60;57.00
63371;DHT22;49504;48.336;14.472;2023-06-22T07:22:34;26.70;56.40
63371;DHT22;49504;48.336;14.472;2023-06-22T07:25:55;26.70;56.40
63371;DHT22;49504;48.336;14.472;2023-06-22T07:29:17;26.70;56.40
63371;DHT22;49504;48.336;14.472;2023-06-22T07:32:38;26.70;56.50
63371;DHT22;49504;48.336;14.472;2023-06-22T07:36:00;26.70;56.50
63371;DHT22;49504;48.336;14.472;2023-06-22T07:39:22;26.60;56.50
63371;DHT22;49504;48.336;14.472;2023-06-22T07:43:02;26.70;56.00
63371;DHT22;49504;48.336;14.472;2023-06-22T07:46:24;26.70;56.60
63371;DHT22;49504;48.336;14.472;2023-06-22T07:49:45;26.70;56.60
63371;DHT22;49504;48.336;14.472;2023-06-22T07:53:06;26.70;56.70
63371;DHT22;49504;48.336;14.472;2023-06-22T07:56:27;26.70;56.70
63371;DHT22;49504;48.336;14.472;2023-06-22T07:59:50;26.70;56.80
63371;DHT22;49504;48.336;14.472;2023-06-22T08:03:11;26.70;56.80
63371;DHT22;49504;48.336;14.472;2023-06-22T08:06:32;26.70;56.90
63371;DHT22;49504;48.336;14.472;2023-06-22T08:09:53;26.70;56.90
63371;DHT22;49504;48.336;14.472;2023-06-22T08:13:14;26.70;56.90
63371;DHT22;49504;48.336;14.472;2023-06-22T08:16:37;26.70;56.90
63371;DHT22;49504;48.336;14.472;2023-06-22T08:19:58;26.70;57.00
63371;DHT22;49504;48.336;14.472;2023-06-22T08:23:19;26.70;57.00
63371;DHT22;49504;48.336;14.472;2023-06-22T08:26:40;26.70;57.00
63371;DHT22;49504;48.336;14.472;2023-06-22T08:30:01;26.70;57.10
63371;DHT22;49504;48.336;14.472;2023-06-22T08:33:24;26.70;57.10
63371;DHT22;49504;48.336;14.472;2023-06-22T08:36:46;26.70;57.10
63371;DHT22;49504;48.336;14.472;2023-06-22T08:40:09;26.70;57.20
63371;DHT22;49504;48.336;14.472;2023-06-22T08:43:30;26.70;57.20
63371;DHT22;49504;48.336;14.472;2023-06-22T08:46:51;26.70;57.20
63371;DHT22;49504;48.336;14.472;2023-06-22T08:50:14;26.70;57.30
63371;DHT22;49504;48.336;14.472;2023-06-22T08:53:35;26.80;58.00
63371;DHT22;49504;48.336;14.472;2023-06-22T08:56:56;26.80;57.40
63371;DHT22;49504;48.336;14.472;2023-06-22T09:00:18;26.70;57.30
63371;DHT22;49504;48.336;14.472;2023-06-22T09:03:40;26.80;57.40
63371;DHT22;49504;48.336;14.472;2023-06-22T09:07:02;26.80;57.40
63371;DHT22;49504;48.336;14.472;2023-06-22T09:10:24;26.80;57.50
63371;DHT22;49504;48.336;14.472;2023-06-22T09:13:45;26.80;57.40
63371;DHT22;49504;48.336;14.472;2023-06-22T09:17:07;26.80;57.40
63371;DHT22;49504;48.336;14.472;2023-06-22T09:20:28;26.80;57.40
63371;DHT22;49504;48.336;14.472;2023-06-22T09:23:50;26.80;57.40
63371;DHT22;49504;48.336;14.472;2023-06-22T09:27:12;26.80;57.40
63371;DHT22;49504;48.336;14.472;2023-06-22T09:30:33;26.80;57.40
63371;DHT22;49504;48.336;14.472;2023-06-22T09:33:54;26.80;57.40
63371;DHT22;49504;48.336;14.472;2023-06-22T09:37:15;26.80;57.40
63371;DHT22;49504;48.336;14.472;2023-06-22T09:40:38;26.80;57.30
63371;DHT22;49504;48.336;14.472;2023-06-22T09:43:59;26.80;57.30
63371;DHT22;49504;48.336;14.472;2023-06-22T09:47:20;26.80;57.30
63371;DHT22;49504;48.336;14.472;2023-06-22T09:50:41;26.80;57.30
63371;DHT22;49504;48.336;14.472;2023-06-22T09:54:02;26.80;57.30
63371;DHT22;49504;48.336;14.472;2023-06-22T09:57:25;26.80;57.20
63371;DHT22;49504;48.336;14.472;2023-06-22T10:00:46;26.90;57.20
63371;DHT22;49504;48.336;14.472;2023-06-22T10:04:07;26.80;57.20
63371;DHT22;49504;48.336;14.472;2023-06-22T10:07:28;26.90;57.20
63371;DHT22;49504;48.336;14.472;2023-06-22T10:10:49;26.90;57.20
63371;DHT22;49504;48.336;14.472;2023-06-22T10:14:12;26.90;57.20
63371;DHT22;49504;48.336;14.472;2023-06-22T10:17:33;26.90;57.20
63371;DHT22;49504;48.336;14.472;2023-06-22T10:20:54;26.90;57.20
63371;DHT22;49504;48.336;14.472;2023-06-22T10:24:15;26.90;57.20
63371;DHT22;49504;48.336;14.472;2023-06-22T10:27:36;26.90;57.20
63371;DHT22;49504;48.336;14.472;2023-06-22T10:30:59;26.90;57.20
63371;DHT22;49504;48.336;14.472;2023-06-22T10:34:20;26.90;57.10
63371;DHT22;49504;48.336;14.472;2023-06-22T10:37:42;26.90;57.20
63371;DHT22;49504;48.336;14.472;2023-06-22T10:41:03;26.90;57.20
63371;DHT22;49504;48.336;14.472;2023-06-22T10:44:24;26.90;57.10
63371;DHT22;49504;48.336;14.472;2023-06-22T10:47:47;26.90;57.10
63371;DHT22;49504;48.336;14.472;2023-06-22T10:51:08;26.90;57.10
63371;DHT22;49504;48.336;14.472;2023-06-22T10:54:29;27.00;57.20
63371;DHT22;49504;48.336;14.472;2023-06-22T10:57:50;27.00;57.20
63371;DHT22;49504;48.336;14.472;2023-06-22T11:01:11;27.00;57.20
63371;DHT22;49504;48.336;14.472;2023-06-22T11:04:34;27.00;57.20
63371;DHT22;49504;48.336;14.472;2023-06-22T11:07:55;27.00;57.20
63371;DHT22;49504;48.336;14.472;2023-06-22T11:11:16;27.00;57.20
63371;DHT22;49504;48.336;14.472;2023-06-22T11:14:38;27.00;57.20
63371;DHT22;49504;48.336;14.472;2023-06-22T11:18:00;27.00;57.20
63371;DHT22;49504;48.336;14.472;2023-06-22T11:21:22;27.00;57.20
63371;DHT22;49504;48.336;14.472;2023-06-22T11:24:43;27.00;57.20
63371;DHT22;49504;48.336;14.472;2023-06-22T11:28:05;27.10;57.20
63371;DHT22;49504;48.336;14.472;2023-06-22T11:31:26;27.00;57.20
63371;DHT22;49504;48.336;14.472;2023-06-22T11:34:47;27.10;57.20
63371;DHT22;49504;48.336;14.472;2023-06-22T11:38:10;27.10;57.30
63371;DHT22;49504;48.336;14.472;2023-06-22T11:41:31;27.10;57.30
63371;DHT22;49504;48.336;14.472;2023-06-22T11:44:52;27.10;57.30
63371;DHT22;49504;48.336;14.472;2023-06-22T11:48:13;27.10;57.30
63371;DHT22;49504;48.336;14.472;2023-06-22T11:51:34;27.10;57.30
63371;DHT22;49504;48.336;14.472;2023-06-22T11:55:12;27.10;57.30
63371;DHT22;49504;48.336;14.472;2023-06-22T11:58:33;27.10;57.30
63371;DHT22;49504;48.336;14.472;2023-06-22T12:01:54;27.10;58.00
63371;DHT22;49504;48.336;14.472;2023-06-22T12:05:16;27.10;59.20
63371;DHT22;49504;48.336;14.472;2023-06-22T12:08:37;27.20;60.00
63371;DHT22;49504;48.336;14.472;2023-06-22T12:12:00;27.20;59.90
63371;DHT22;49504;48.336;14.472;2023-06-22T12:15:21;27.20;59.60
63371;DHT22;49504;48.336;14.472;2023-06-22T12:18:42;27.20;59.50
63371;DHT22;49504;48.336;14.472;2023-06-22T12:22:03;27.20;59.50
63371;DHT22;49504;48.336;14.472;2023-06-22T12:25:25;27.30;59.60
63371;DHT22;49504;48.336;14.472;2023-06-22T12:28:47;27.30;60.00
63371;DHT22;49504;48.336;14.472;2023-06-22T12:32:08;27.20;61.20
63371;DHT22;49504;48.336;14.472;2023-06-22T12:35:30;27.20;61.50
63371;DHT22;49504;48.336;14.472;2023-06-22T12:38:51;27.30;61.20
63371;DHT22;49504;48.336;14.472;2023-06-22T12:42:13;27.30;61.00
63371;DHT22;49504;48.336;14.472;2023-06-22T12:45:35;27.30;61.10
63371;DHT22;49504;48.336;14.472;2023-06-22T12:48:57;27.30;60.80
63371;DHT22;49504;48.336;14.472;2023-06-22T12:52:18;27.30;60.40
63371;DHT22;49504;48.336;14.472;2023-06-22T12:55:40;27.30;60.30
63371;DHT22;49504;48.336;14.472;2023-06-22T12:59:02;27.30;60.50
63371;DHT22;49504;48.336;14.472;2023-06-22T13:02:27;27.30;60.40
63371;DHT22;49504;48.336;14.472;2023-06-22T13:05:50;27.30;60.10
63371;DHT22;49504;48.336;14.472;2023-06-22T13:09:12;27.40;60.00
63371;DHT22;49504;48.336;14.472;2023-06-22T13:12:39;27.40;59.90
63371;DHT22;49504;48.336;14.472;2023-06-22T13:16:05;27.30;59.70
63371;DHT22;49504;48.336;14.472;2023-06-22T13:19:28;27.30;59.60
63371;DHT22;49504;48.336;14.472;2023-06-22T13:22:49;27.40;59.60
63371;DHT22;49504;48.336;14.472;2023-06-22T13:26:10;27.40;59.50
63371;DHT22;49504;48.336;14.472;2023-06-22T13:29:31;27.40;59.60
63371;DHT22;49504;48.336;14.472;2023-06-22T13:32:52;27.40;59.60
63371;DHT22;49504;48.336;14.472;2023-06-22T13:36:15;27.40;59.30
63371;DHT22;49504;48.336;14.472;2023-06-22T13:39:36;27.40;59.30
63371;DHT22;49504;48.336;14.472;2023-06-22T13:42:57;27.40;59.40
63371;DHT22;49504;48.336;14.472;2023-06-22T13:46:18;27.40;59.30
63371;DHT22;49504;48.336;14.472;2023-06-22T13:49:39;27.30;59.20
63371;DHT22;49504;48.336;14.472;2023-06-22T13:53:02;27.40;59.10
63371;DHT22;49504;48.336;14.472;2023-06-22T13:56:23;27.40;59.10
63371;DHT22;49504;48.336;14.472;2023-06-22T13:59:44;27.40;59.10
63371;DHT22;49504;48.336;14.472;2023-06-22T14:03:05;27.40;59.00
63371;DHT22;49504;48.336;14.472;2023-06-22T14:08:26;27.40;58.40
63371;DHT22;49504;48.336;14.472;2023-06-22T14:11:47;27.40;58.90
63371;DHT22;49504;48.336;14.472;2023-06-22T14:15:09;27.40;58.70
63371;DHT22;49504;48.336;14.472;2023-06-22T14:18:30;27.40;58.70
63371;DHT22;49504;48.336;14.472;2023-06-22T14:21:51;27.40;58.60
63371;DHT22;49504;48.336;14.472;2023-06-22T14:25:13;27.40;58.60
63371;DHT22;49504;48.336;14.472;2023-06-22T14:28:35;27.40;58.60
63371;DHT22;49504;48.336;14.472;2023-06-22T14:31:56;27.40;58.60
63371;DHT22;49504;48.336;14.472;2023-06-22T14:35:17;27.40;58.60
63371;DHT22;49504;48.336;14.472;2023-06-22T14:38:39;27.40;58.50
63371;DHT22;49504;48.336;14.472;2023-06-22T14:42:01;27.40;58.60
63371;DHT22;49504;48.336;14.472;2023-06-22T14:45:24;27.40;58.60
63371;DHT22;49504;48.336;14.472;2023-06-22T14:48:49;27.40;58.60
63371;DHT22;49504;48.336;14.472;2023-06-22T14:52:10;27.40;58.70
63371;DHT22;49504;48.336;14.472;2023-06-22T14:55:31;27.40;58.90
63371;DHT22;49504;48.336;14.472;2023-06-22T14:58:53;27.40;59.20
63371;DHT22;49504;48.336;14.472;2023-06-22T15:02:15;27.40;59.30
63371;DHT22;49504;48.336;14.472;2023-06-22T15:05:40;27.40;59.30
63371;DHT22;49504;48.336;14.472;2023-06-22T15:09:07;27.40;59.20
63371;DHT22;49504;48.336;14.472;2023-06-22T15:12:29;27.40;59.20
63371;DHT22;49504;48.336;14.472;2023-06-22T15:15:53;27.40;59.00
63371;DHT22;49504;48.336;14.472;2023-06-22T15:19:14;27.40;58.90
63371;DHT22;49504;48.336;14.472;2023-06-22T15:22:35;27.40;58.90
63371;DHT22;49504;48.336;14.472;2023-06-22T15:25:57;27.40;59.00
63371;DHT22;49504;48.336;14.472;2023-06-22T15:29:19;27.40;59.00
63371;DHT22;49504;48.336;14.472;2023-06-22T15:32:43;27.40;59.00
63371;DHT22;49504;48.336;14.472;2023-06-22T15:36:05;27.40;59.10
63371;DHT22;49504;48.336;14.472;2023-06-22T15:39:26;27.40;59.10
63371;DHT22;49504;48.336;14.472;2023-06-22T15:42:50;27.40;59.40
63371;DHT22;49504;48.336;14.472;2023-06-22T15:46:12;27.40;59.40
63371;DHT22;49504;48.336;14.472;2023-06-22T15:49:35;27.40;59.60
63371;DHT22;49504;48.336;14.472;2023-06-22T15:52:56;27.50;60.00
63371;DHT22;49504;48.336;14.472;2023-06-22T15:56:17;27.50;60.10
63371;DHT22;49504;48.336;14.472;2023-06-22T15:59:41;27.50;59.90
63371;DHT22;49504;48.336;14.472;2023-06-22T16:06:11;27.50;58.70
63371;DHT22;49504;48.336;14.472;2023-06-22T16:09:33;27.50;58.40
63371;DHT22;49504;48.336;14.472;2023-06-22T16:12:54;27.60;58.60
63371;DHT22;49504;48.336;14.472;2023-06-22T16:16:15;27.50;58.30
63371;DHT22;49504;48.336;14.472;2023-06-22T16:19:37;27.60;58.30
63371;DHT22;49504;48.336;14.472;2023-06-22T16:23:01;27.60;58.10
63371;DHT22;49504;48.336;14.472;2023-06-22T16:26:23;27.60;58.00
63371;DHT22;49504;48.336;14.472;2023-06-22T16:29:45;27.60;58.10
63371;DHT22;49504;48.336;14.472;2023-06-22T16:33:06;27.60;58.20
63371;DHT22;49504;48.336;14.472;2023-06-22T16:36:27;27.60;58.20
63371;DHT22;49504;48.336;14.472;2023-06-22T16:39:50;27.60;58.10
63371;DHT22;49504;48.336;14.472;2023-06-22T16:45:44;27.50;57.90
63371;DHT22;49504;48.336;14.472;2023-06-22T16:49:05;27.60;58.80
63371;DHT22;49504;48.336;14.472;2023-06-22T16:52:26;27.60;58.90
63371;DHT22;49504;48.336;14.472;2023-06-22T16:55:48;27.50;58.80
63371;DHT22;49504;48.336;14.472;2023-06-22T16:59:10;27.50;59.00
63371;DHT22;49504;48.336;14.472;2023-06-22T17:02:33;27.50;59.00
63371;DHT22;49504;48.336;14.472;2023-06-22T17:05:56;27.60;59.10
63371;DHT22;49504;48.336;14.472;2023-06-22T17:09:18;27.60;59.10
63371;DHT22;49504;48.336;14.472;2023-06-22T17:12:40;27.60;59.10
63371;DHT22;49504;48.336;14.472;2023-06-22T17:16:03;27.50;59.00
63371;DHT22;49504;48.336;14.472;2023-06-22T17:19:27;27.60;59.10
63371;DHT22;49504;48.336;14.472;2023-06-22T17:22:51;27.60;59.20
63371;DHT22;49504;48.336;14.472;2023-06-22T17:26:14;27.60;59.20
63371;DHT22;49504;48.336;14.472;2023-06-22T17:29:36;27.60;59.20
63371;DHT22;49504;48.336;14.472;2023-06-22T17:32:57;27.60;59.20
63371;DHT22;49504;48.336;14.472;2023-06-22T17:36:20;27.60;59.30
63371;DHT22;49504;48.336;14.472;2023-06-22T17:39:51;27.60;58.90
63371;DHT22;49504;48.336;14.472;2023-06-22T17:43:13;27.60;58.70
63371;DHT22;49504;48.336;14.472;2023-06-22T17:46:35;27.70;58.70
63371;DHT22;49504;48.336;14.472;2023-06-22T17:50:04;27.70;58.40
63371;DHT22;49504;48.336;14.472;2023-06-22T17:53:28;27.70;58.20
63371;DHT22;49504;48.336;14.472;2023-06-22T17:56:49;27.60;57.90
63371;DHT22;49504;48.336;14.472;2023-06-22T18:00:12;27.70;58.00
63371;DHT22;49504;48.336;14.472;2023-06-22T18:03:34;27.60;57.80
63371;DHT22;49504;48.336;14.472;2023-06-22T18:06:56;27.60;57.70
63371;DHT22;49504;48.336;14.472;2023-06-22T18:10:19;27.70;57.80
63371;DHT22;49504;48.336;14.472;2023-06-22T18:13:41;27.60;57.80
63371;DHT22;49504;48.336;14.472;2023-06-22T18:17:04;27.60;58.10
63371;DHT22;49504;48.336;14.472;2023-06-22T18:22:17;27.60;57.60
63371;DHT22;49504;48.336;14.472;2023-06-22T18:37:13;27.60;57.50
63371;DHT22;49504;48.336;14.472;2023-06-22T18:40:35;27.70;57.80
63371;DHT22;49504;48.336;14.472;2023-06-22T18:43:59;27.80;57.80
63371;DHT22;49504;48.336;14.472;2023-06-22T18:47:27;27.80;57.60
63371;DHT22;49504;48.336;14.472;2023-06-22T18:50:49;27.70;57.60
63371;DHT22;49504;48.336;14.472;2023-06-22T18:54:18;27.70;57.60
63371;DHT22;49504;48.336;14.472;2023-06-22T18:57:40;27.70;57.60
63371;DHT22;49504;48.336;14.472;2023-06-22T19:01:14;27.70;57.60
63371;DHT22;49504;48.336;14.472;2023-06-22T19:04:37;27.70;57.70
63371;DHT22;49504;48.336;14.472;2023-06-22T19:07:59;27.60;57.60
63371;DHT22;49504;48.336;14.472;2023-06-22T19:11:26;27.60;57.70
63371;DHT22;49504;48.336;14.472;2023-06-22T19:15:08;27.60;57.70
63371;DHT22;49504;48.336;14.472;2023-06-22T19:18:32;27.60;57.80
63371;DHT22;49504;48.336;14.472;2023-06-22T19:22:00;27.50;57.70
63371;DHT22;49504;48.336;14.472;2023-06-22T19:25:22;27.50;57.80
63371;DHT22;49504;48.336;14.472;2023-06-22T19:28:49;27.50;57.70
63371;DHT22;49504;48.336;14.472;2023-06-22T19:32:11;27.50;57.80
63371;DHT22;49504;48.336;14.472;2023-06-22T19:35:32;27.50;58.50
63371;DHT22;49504;48.336;14.472;2023-06-22T19:38:53;27.50;58.10
63371;DHT22;49504;48.336;14.472;2023-06-22T19:42:15;27.40;57.90
63371;DHT22;49504;48.336;14.472;2023-06-22T19:45:40;27.50;58.00
63371;DHT22;49504;48.336;14.472;2023-06-22T19:49:02;27.50;58.00
63371;DHT22;49504;48.336;14.472;2023-06-22T19:52:23;27.50;58.00
63371;DHT22;49504;48.336;14.472;2023-06-22T19:55:49;27.50;58.00
63371;DHT22;49504;48.336;14.472;2023-06-22T19:59:11;27.40;58.00
63371;DHT22;49504;48.336;14.472;2023-06-22T20:02:34;27.40;57.90
63371;DHT22;49504;48.336;14.472;2023-06-22T20:06:07;27.40;57.90
63371;DHT22;49504;48.336;14.472;2023-06-22T20:09:29;27.40;57.90
63371;DHT22;49504;48.336;14.472;2023-06-22T20:12:52;27.40;58.00
63371;DHT22;49504;48.336;14.472;2023-06-22T20:16:13;27.40;58.00
63371;DHT22;49504;48.336;14.472;2023-06-22T20:19:36;27.40;58.00
63371;DHT22;49504;48.336;14.472;2023-06-22T20:22:58;27.40;58.00
63371;DHT22;49504;48.336;14.472;2023-06-22T20:26:20;27.40;58.10
63371;DHT22;49504;48.336;14.472;2023-06-22T20:29:41;27.40;58.10
63371;DHT22;49504;48.336;14.472;2023-06-22T20:33:02;27.40;58.00
63371;DHT22;49504;48.336;14.472;2023-06-22T20:36:25;27.40;58.10
63371;DHT22;49504;48.336;14.472;2023-06-22T20:39:46;27.30;58.00
63371;DHT22;49504;48.336;14.472;2023-06-22T20:43:08;27.30;58.00
63371;DHT22;49504;48.336;14.472;2023-06-22T20:46:37;27.30;57.50
63371;DHT22;49504;48.336;14.472;2023-06-22T20:49:58;27.30;58.10
63371;DHT22;49504;48.336;14.472;2023-06-22T20:53:20;27.30;58.10
63371;DHT22;49504;48.336;14.472;2023-06-22T20:56:41;27.30;58.10
63371;DHT22;49504;48.336;14.472;2023-06-22T21:00:02;27.30;58.10
63371;DHT22;49504;48.336;14.472;2023-06-22T21:03:25;27.30;58.10
63371;DHT22;49504;48.336;14.472;2023-06-22T21:06:46;27.30;58.10
63371;DHT22;49504;48.336;14.472;2023-06-22T21:13:36;27.30;57.80
63371;DHT22;49504;48.336;14.472;2023-06-22T21:16:57;27.30;58.30
63371;DHT22;49504;48.336;14.472;2023-06-22T21:22:37;27.20;57.60
63371;DHT22;49504;48.336;14.472;2023-06-22T21:25:58;27.30;58.30
63371;DHT22;49504;48.336;14.472;2023-06-22T21:29:20;27.30;58.20